Time;durP1;ratioP1;P1;durP2;ratioP2;P2;SDS_P1;SDS_P2;PMS_P1;PMS_P2;Temp;Humidity;BMP_temperature;BMP_pressure;BME280_temperature;BME280_humidity;BME280_pressure;Samples;Min_cycle;Max_cycle;Signal;HPM_P1;HPM_P2
2022/12/29 00:02:02;;;;;;;5.00;4.10;;;;;;;6.56;100.00;99789.88;5011636;28;20453;-44
2022/12/29 00:04:28;;;;;;;4.75;4.35;;;;;;;6.57;100.00;99795.13;5011995;28;20219;-46
2022/12/29 00:06:55;;;;;;;5.70;4.85;;;;;;;6.60;100.00;99791.47;5011845;28;20612;-47
2022/12/29 00:09:21;;;;;;;5.40;5.00;;;;;;;6.61;100.00;99793.22;5011900;28;20192;-42
2022/12/29 00:11:46;;;;;;;6.30;5.80;;;;;;;6.60;100.00;99791.47;5011841;28;20331;-45
2022/12/29 00:16:56;;;;;;;7.00;5.85;;;;;;;6.69;100.00;99792.91;5012377;28;20161;-47
2022/12/29 00:36:17;;;;;;;9.10;8.20;;;;;;;6.82;100.00;99762.22;5011737;28;20172;-43
2022/12/29 00:44:23;;;;;;;9.95;9.00;;;;;;;6.87;100.00;99752.28;5009932;28;20218;-45
2022/12/29 00:46:49;;;;;;;9.65;8.75;;;;;;;6.92;100.00;99755.59;5011077;28;20376;-46
2022/12/29 00:49:30;;;;;;;10.18;9.18;;;;;;;6.89;100.00;99761.06;5011315;28;20161;-42
2022/12/29 00:52:00;;;;;;;10.52;9.52;;;;;;;6.94;100.00;99768.88;5011200;28;20161;-46
2022/12/29 00:54:29;;;;;;;10.75;9.75;;;;;;;6.94;100.00;99752.88;5011452;28;20176;-46
2022/12/29 00:56:54;;;;;;;10.32;9.48;;;;;;;6.95;100.00;99755.50;5010972;28;20237;-45
2022/12/29 00:59:20;;;;;;;11.20;10.13;;;;;;;6.99;100.00;99751.75;5022503;28;20209;-45
2022/12/29 01:01:47;;;;;;;10.32;9.35;;;;;;;7.00;100.00;99755.31;5015534;28;20181;-44
2022/12/29 01:04:13;;;;;;;11.88;10.73;;;;;;;7.02;100.00;99750.78;5004013;28;20193;-44
2022/12/29 01:06:40;;;;;;;11.20;10.20;;;;;;;7.05;100.00;99744.47;5013764;28;20180;-44
2022/12/29 01:11:52;;;;;;;11.77;10.85;;;;;;;7.12;100.00;99740.59;5002795;28;20706;-45
2022/12/29 01:14:19;;;;;;;12.23;11.07;;;;;;;7.12;100.00;99735.28;5006318;28;20279;-43
2022/12/29 01:16:45;;;;;;;13.02;11.82;;;;;;;7.17;100.00;99719.97;5003549;28;20186;-43
2022/12/29 01:19:11;;;;;;;12.20;11.20;;;;;;;7.17;100.00;99738.59;5008904;28;20208;-44
2022/12/29 01:21:37;;;;;;;12.82;11.63;;;;;;;7.21;100.00;99724.22;5008258;28;20177;-45
2022/12/29 01:24:03;;;;;;;11.98;11.07;;;;;;;7.20;100.00;99727.84;5010218;28;20210;-45
2022/12/29 01:26:28;;;;;;;12.27;11.18;;;;;;;7.27;100.00;99734.63;5021833;28;20621;-44
2022/12/29 01:28:54;;;;;;;12.88;11.65;;;;;;;7.29;100.00;99724.78;5014183;28;20272;-44
2022/12/29 01:31:19;;;;;;;13.20;12.00;;;;;;;7.25;100.00;99732.97;5015293;28;20209;-45
2022/12/29 01:33:45;;;;;;;13.07;11.75;;;;;;;7.26;100.00;99721.38;5004315;28;20211;-44
2022/12/29 01:36:14;;;;;;;12.73;11.65;;;;;;;7.29;100.00;99732.78;5006138;28;20209;-45
2022/12/29 01:38:40;;;;;;;12.00;11.00;;;;;;;7.30;100.00;99720.31;5002948;28;20212;-45
2022/12/29 01:41:07;;;;;;;15.23;12.80;;;;;;;7.34;100.00;99713.94;5010954;28;20189;-46
2022/12/29 01:43:46;;;;;;;12.48;11.43;;;;;;;7.37;100.00;99714.69;5009727;28;20193;-43
2022/12/29 01:46:41;;;;;;;12.27;11.18;;;;;;;7.39;100.00;99704.81;5021406;28;20199;-45
2022/12/29 01:49:24;;;;;;;12.85;11.68;;;;;;;7.39;100.00;99702.16;5012551;28;20188;-45
2022/12/29 01:52:07;;;;;;;12.50;11.40;;;;;;;7.42;100.00;99702.00;5007983;28;20267;-45
2022/12/29 01:54:50;;;;;;;11.73;10.75;;;;;;;7.49;100.00;99699.94;5010409;28;20507;-45
2022/12/29 01:57:24;;;;;;;11.40;10.43;;;;;;;7.49;100.00;99691.94;5000906;28;20243;-44
2022/12/29 01:59:55;;;;;;;11.63;10.57;;;;;;;7.48;100.00;99697.34;5007974;28;20524;-45
2022/12/29 02:02:22;;;;;;;12.00;10.90;;;;;;;7.46;100.00;99691.22;5024273;28;20207;-43
2022/12/29 02:04:47;;;;;;;11.23;10.30;;;;;;;7.49;100.00;99685.75;5009897;28;20269;-46
2022/12/29 02:07:22;;;;;;;11.75;10.75;;;;;;;7.49;100.00;99689.28;5007411;28;20216;-43
2022/12/29 02:09:50;;;;;;;12.02;10.82;;;;;;;7.50;100.00;99675.03;4995602;28;20176;-47
2022/12/29 02:12:19;;;;;;;11.10;10.20;;;;;;;7.55;100.00;99677.50;5023970;28;20236;-45
2022/12/29 02:14:47;;;;;;;10.88;9.98;;;;;;;7.54;100.00;99662.41;5019595;28;20180;-45
2022/12/29 02:17:20;;;;;;;11.30;10.35;;;;;;;7.53;100.00;99658.91;5008858;28;20200;-44
2022/12/29 02:20:13;;;;;;;11.55;10.52;;;;;;;7.55;100.00;99658.84;5014890;28;20212;-45
2022/12/29 02:22:39;;;;;;;10.77;9.88;;;;;;;7.61;100.00;99650.56;5010005;28;20626;-45
2022/12/29 02:25:42;;;;;;;10.32;9.52;;;;;;;7.58;100.00;99658.69;5002419;28;20296;-46
2022/12/29 02:28:19;;;;;;;11.23;10.23;;;;;;;7.58;100.00;99648.03;5014666;28;20179;-45
2022/12/29 02:31:00;;;;;;;11.48;10.48;;;;;;;7.63;100.00;99641.56;5016336;28;20317;-46
2022/12/29 02:33:58;;;;;;;11.95;10.63;;;;;;;7.62;100.00;99630.97;5007727;28;20204;-44
2022/12/29 02:36:39;;;;;;;12.27;11.18;;;;;;;7.61;100.00;99638.09;5002126;28;20551;-45
2022/12/29 02:39:08;;;;;;;12.02;11.07;;;;;;;7.60;100.00;99625.69;4994937;28;20273;-45
2022/12/29 02:41:42;;;;;;;12.30;11.27;;;;;;;7.63;100.00;99630.00;5012580;28;20264;-45
2022/12/29 02:44:31;;;;;;;12.35;11.27;;;;;;;7.63;100.00;99630.00;5002533;28;20725;-44
2022/12/29 02:47:04;;;;;;;12.93;11.65;;;;;;;7.59;100.00;99631.97;5007713;28;20185;-44
2022/12/29 02:49:43;;;;;;;12.13;11.02;;;;;;;7.58;100.00;99616.03;5011243;28;20197;-45
2022/12/29 02:52:20;;;;;;;12.73;11.70;;;;;;;7.63;100.00;99616.69;5008116;28;20586;-46
2022/12/29 02:54:48;;;;;;;12.68;11.57;;;;;;;7.65;100.00;99614.81;4998680;28;20655;-45
2022/12/29 02:57:19;;;;;;;13.27;12.02;;;;;;;7.62;100.00;99607.81;5022684;28;20188;-45
2022/12/29 02:59:51;;;;;;;12.23;11.00;;;;;;;7.61;100.00;99613.25;5023056;28;20225;-43
2022/12/29 03:02:30;;;;;;;12.00;11.10;;;;;;;7.63;100.00;99606.03;5014951;28;20200;-45
2022/12/29 03:05:06;;;;;;;12.75;11.68;;;;;;;7.62;100.00;99618.50;5019302;28;20220;-45
2022/12/29 03:07:48;;;;;;;12.10;11.10;;;;;;;7.62;100.00;99612.31;5012401;28;20278;-44
2022/12/29 03:10:34;;;;;;;12.43;11.43;;;;;;;7.64;100.00;99602.44;5001733;28;20208;-46
2022/12/29 03:16:44;;;;;;;12.65;11.52;;;;;;;7.71;100.00;99600.34;5011495;28;20216;-45
2022/12/29 03:19:35;;;;;;;12.75;11.55;;;;;;;7.71;100.00;99590.53;4998936;28;20259;-45
2022/12/29 03:25:05;;;;;;;13.25;12.07;;;;;;;7.77;100.00;99594.75;5021045;28;20185;-47
2022/12/29 03:27:36;;;;;;;12.85;11.73;;;;;;;7.76;100.00;99582.31;5013939;28;20203;-45
2022/12/29 03:30:04;;;;;;;12.98;11.93;;;;;;;7.78;100.00;99588.47;5004298;28;20172;-46
2022/12/29 03:32:38;;;;;;;12.30;11.32;;;;;;;7.91;100.00;99581.59;5010617;28;20209;-45
2022/12/29 03:35:07;;;;;;;12.38;11.38;;;;;;;7.88;100.00;99588.91;5005005;28;20256;-44
2022/12/29 03:37:40;;;;;;;12.35;11.35;;;;;;;7.90;100.00;99579.91;5007527;28;20254;-43
2022/12/29 03:40:08;;;;;;;11.45;10.30;;;;;;;7.93;100.00;99592.22;5004063;28;20625;-45
2022/12/29 03:42:36;;;;;;;11.65;10.75;;;;;;;7.96;100.00;99589.38;5014924;28;20551;-46
2022/12/29 03:45:05;;;;;;;12.05;10.85;;;;;;;7.98;100.00;99572.41;5025714;28;20180;-46
2022/12/29 03:47:30;;;;;;;11.82;10.82;;;;;;;8.02;100.00;99583.78;5017704;28;20191;-44
2022/12/29 03:49:56;;;;;;;11.70;10.70;;;;;;;8.02;100.00;99578.44;5014604;28;20194;-46
2022/12/29 03:52:21;;;;;;;11.50;10.65;;;;;;;8.02;100.00;99573.09;5017939;28;20262;-45
2022/12/29 03:54:48;;;;;;;11.35;10.15;;;;;;;8.07;100.00;99563.09;5010801;28;20193;-46
2022/12/29 03:57:14;;;;;;;10.27;9.48;;;;;;;8.09;100.00;99569.22;5002757;28;20536;-45
2022/12/29 03:59:50;;;;;;;11.30;10.40;;;;;;;8.08;100.00;99558.63;5010257;28;20212;-45
2022/12/29 04:02:17;;;;;;;11.48;10.48;;;;;;;8.12;100.00;99560.19;5013362;28;20610;-45
2022/12/29 04:04:43;;;;;;;9.95;9.13;;;;;;;8.16;100.00;99545.78;5020999;28;20227;-46
2022/12/29 04:07:09;;;;;;;10.50;9.60;;;;;;;8.14;100.00;99551.19;5020151;28;20237;-44
2022/12/29 04:09:35;;;;;;;9.90;9.15;;;;;;;8.18;100.00;99550.09;5017554;28;20180;-44
2022/12/29 04:12:01;;;;;;;10.50;9.50;;;;;;;8.15;100.00;99536.88;5019545;28;20201;-45
2022/12/29 04:14:27;;;;;;;9.63;8.82;;;;;;;8.16;100.00;99533.28;5010982;28;20185;-45
2022/12/29 04:16:53;;;;;;;9.95;9.25;;;;;;;8.21;100.00;99531.25;5009963;28;20197;-45
2022/12/29 04:19:19;;;;;;;9.73;8.93;;;;;;;8.24;100.00;99530.22;5008366;28;20654;-45
2022/12/29 04:21:46;;;;;;;9.60;8.90;;;;;;;8.24;100.00;99527.56;5007068;28;20275;-47
2022/12/29 04:24:12;;;;;;;9.60;8.98;;;;;;;8.25;100.00;99521.31;4997118;28;20651;-46
2022/12/29 04:26:40;;;;;;;9.82;8.93;;;;;;;8.28;100.00;99506.94;5014501;28;20188;-44
2022/12/29 04:29:31;;;;;;;9.25;8.55;;;;;;;8.23;100.00;99517.84;5013564;28;20188;-47
2022/12/29 04:32:07;;;;;;;9.20;8.45;;;;;;;8.25;100.00;99498.16;5020722;28;20211;-45
2022/12/29 04:34:36;;;;;;;9.80;9.00;;;;;;;8.34;100.00;99509.31;5017404;28;20189;-45
2022/12/29 04:37:01;;;;;;;9.93;9.23;;;;;;;8.34;100.00;99495.97;5010138;28;20683;-45
2022/12/29 04:39:27;;;;;;;8.80;8.18;;;;;;;8.33;100.00;99500.44;5019464;28;20587;-45
2022/12/29 04:41:53;;;;;;;8.65;7.95;;;;;;;8.32;100.00;99512.03;5008194;28;20185;-45
2022/12/29 04:44:20;;;;;;;8.70;7.90;;;;;;;8.38;100.00;99500.22;5000961;28;20326;-44
2022/12/29 04:47:12;;;;;;;8.55;7.95;;;;;;;8.33;100.00;99491.56;5009808;28;20516;-47
2022/12/29 04:49:44;;;;;;;8.90;8.10;;;;;;;8.29;100.00;99489.97;5007742;28;20188;-45
2022/12/29 04:52:31;;;;;;;8.40;7.80;;;;;;;8.29;100.00;99493.53;5020414;28;20197;-43
2022/12/29 04:54:57;;;;;;;8.77;8.07;;;;;;;8.32;100.00;99485.34;5015626;28;20188;-46
2022/12/29 04:57:23;;;;;;;8.82;8.13;;;;;;;8.30;100.00;99492.56;5018554;28;20190;-45
2022/12/29 04:59:53;;;;;;;8.70;8.00;;;;;;;8.28;100.00;99481.13;5016429;28;20213;-44
2022/12/29 05:02:19;;;;;;;8.98;8.27;;;;;;;8.27;100.00;99470.53;5016144;28;20587;-43
2022/12/29 05:04:46;;;;;;;8.40;7.70;;;;;;;8.31;100.00;99466.75;5006158;28;20195;-44
2022/12/29 05:07:12;;;;;;;8.25;7.55;;;;;;;8.35;100.00;99457.66;5009949;28;20606;-46
2022/12/29 05:09:38;;;;;;;7.65;7.05;;;;;;;8.32;100.00;99469.34;5007051;28;20182;-44
2022/12/29 05:12:04;;;;;;;8.43;7.40;;;;;;;8.33;100.00;99454.19;5004198;28;20685;-43
2022/12/29 05:14:32;;;;;;;7.65;7.05;;;;;;;8.38;100.00;99444.16;5002959;28;20558;-44
2022/12/29 05:16:57;;;;;;;7.72;7.15;;;;;;;8.42;100.00;99457.31;5018184;28;20203;-44
2022/12/29 05:19:24;;;;;;;8.02;7.43;;;;;;;8.47;100.00;99440.19;5020796;28;20243;-44
2022/12/29 05:21:49;;;;;;;6.90;6.40;;;;;;;8.49;100.00;99447.16;5013533;28;20224;-45
2022/12/29 05:24:15;;;;;;;6.70;6.10;;;;;;;8.50;100.00;99440.03;5015126;28;20647;-41
2022/12/29 05:26:41;;;;;;;6.53;6.03;;;;;;;8.50;100.00;99454.22;5007760;28;20181;-44
2022/12/29 05:29:30;;;;;;;6.57;6.07;;;;;;;8.48;100.00;99445.44;5009795;28;20563;-45
2022/12/29 05:31:56;;;;;;;6.30;5.90;;;;;;;8.48;100.00;99439.22;5007340;28;20206;-44
2022/12/29 05:34:21;;;;;;;7.00;6.32;;;;;;;8.53;100.00;99442.53;5009134;28;20271;-46
2022/12/29 05:36:47;;;;;;;6.95;6.45;;;;;;;8.51;100.00;99436.41;5010770;28;20757;-47
2022/12/29 05:39:13;;;;;;;7.10;6.55;;;;;;;8.45;100.00;99451.78;5018672;28;20755;-44
2022/12/29 05:41:42;;;;;;;7.47;6.88;;;;;;;8.44;100.00;99435.88;5016098;28;20184;-43
2022/12/29 05:44:11;;;;;;;7.10;6.53;;;;;;;8.39;100.00;99435.19;5023823;28;20206;-44
2022/12/29 05:47:01;;;;;;;6.63;6.07;;;;;;;8.36;100.00;99443.38;5014165;28;20299;-45
2022/12/29 05:49:37;;;;;;;7.40;6.68;;;;;;;8.38;100.00;99446.84;5011709;28;20218;-46
2022/12/29 05:52:18;;;;;;;7.22;6.57;;;;;;;8.33;100.00;99449.75;5012612;28;20271;-45
2022/12/29 05:54:44;;;;;;;6.90;6.30;;;;;;;8.30;100.00;99433.00;5011915;28;20192;-46
2022/12/29 05:57:13;;;;;;;6.60;6.03;;;;;;;8.32;100.00;99444.47;5001747;28;20181;-45
2022/12/29 05:59:40;;;;;;;6.53;6.13;;;;;;;8.36;100.00;99446.03;5007913;28;20227;-45
2022/12/29 06:02:06;;;;;;;6.18;5.68;;;;;;;8.36;100.00;99444.22;5020429;28;20211;-46
2022/12/29 06:04:32;;;;;;;5.90;5.50;;;;;;;8.36;100.00;99449.56;5027552;28;20717;-46
2022/12/29 06:06:57;;;;;;;4.43;4.13;;;;;;;8.36;100.00;99470.91;5021323;28;20184;-44
2022/12/29 06:09:33;;;;;;;4.60;4.30;;;;;;;8.43;100.00;99453.69;5014642;28;20181;-45
2022/12/29 06:12:00;;;;;;;4.78;4.40;;;;;;;8.44;100.00;99442.06;5018117;28;20208;-46
2022/12/29 06:14:26;;;;;;;4.00;3.75;;;;;;;8.44;100.00;99446.56;5016305;28;20192;-46
2022/12/29 06:16:51;;;;;;;5.95;3.72;;;;;;;8.45;100.00;99448.28;5013978;28;20189;-45
2022/12/29 06:19:17;;;;;;;3.67;3.47;;;;;;;8.50;100.00;99453.38;5011529;28;20603;-48
2022/12/29 06:21:43;;;;;;;3.38;3.17;;;;;;;8.48;100.00;99461.44;5013973;28;20192;-45
2022/12/29 06:24:10;;;;;;;3.35;3.05;;;;;;;8.55;100.00;99457.53;5016054;28;20548;-46
2022/12/29 06:26:36;;;;;;;3.10;2.80;;;;;;;8.52;100.00;99472.84;5021333;28;20203;-45
2022/12/29 06:29:02;;;;;;;3.22;3.00;;;;;;;8.53;100.00;99461.22;5020141;28;20184;-43
2022/12/29 06:31:28;;;;;;;2.92;2.67;;;;;;;8.49;100.00;99465.84;5024236;28;20192;-44
2022/12/29 06:33:54;;;;;;;3.58;3.28;;;;;;;8.52;100.00;99471.03;5020701;28;20203;-44
2022/12/29 06:36:19;;;;;;;2.50;2.40;;;;;;;8.49;100.00;99470.34;5014352;28;20268;-46
2022/12/29 06:38:45;;;;;;;3.47;2.72;;;;;;;8.44;100.00;99462.56;5007944;28;20212;-47
2022/12/29 06:41:11;;;;;;;3.10;2.45;;;;;;;8.47;100.00;99470.41;5009676;28;20176;-47
2022/12/29 06:43:37;;;;;;;2.97;2.80;;;;;;;8.50;100.00;99470.22;5001789;28;20506;-45
2022/12/29 06:46:29;;;;;;;2.70;2.50;;;;;;;8.45;100.00;99461.63;5010746;28;20708;-46
2022/12/29 06:48:54;;;;;;;4.10;2.75;;;;;;;8.52;100.00;99470.16;5022548;28;20240;-45
2022/12/29 06:51:20;;;;;;;3.20;3.00;;;;;;;8.52;100.00;99470.16;5024857;28;20243;-46
2022/12/29 06:53:45;;;;;;;3.38;2.95;;;;;;;8.49;100.00;99468.53;5019706;28;20717;-46
2022/12/29 06:56:11;;;;;;;3.08;2.88;;;;;;;8.52;100.00;99464.81;5014512;28;20272;-46
2022/12/29 06:58:36;;;;;;;3.35;3.15;;;;;;;8.44;100.00;99470.56;5015791;28;20219;-44
2022/12/29 07:01:02;;;;;;;4.10;3.70;;;;;;;8.55;100.00;99462.88;5010350;28;20625;-42
2022/12/29 07:03:27;;;;;;;3.90;3.42;;;;;;;8.58;100.00;99451.16;5002222;28;20618;-43
2022/12/29 07:05:54;;;;;;;3.10;2.90;;;;;;;8.49;100.00;99448.97;5010983;28;20235;-43
2022/12/29 07:08:19;;;;;;;3.50;3.22;;;;;;;8.54;100.00;99469.13;5019997;28;20180;-41
2022/12/29 07:10:46;;;;;;;3.38;3.17;;;;;;;8.53;100.00;99463.91;5012255;28;20177;-41
2022/12/29 07:13:11;;;;;;;3.60;3.30;;;;;;;8.53;100.00;99442.53;5013747;28;20613;-40
2022/12/29 07:15:37;;;;;;;3.28;2.97;;;;;;;8.56;100.00;99445.03;5013748;28;20236;-42
2022/12/29 07:18:03;;;;;;;3.60;3.30;;;;;;;8.57;100.00;99452.97;5009415;28;20215;-41
2022/12/29 07:20:29;;;;;;;3.45;3.10;;;;;;;8.59;100.00;99463.56;5008131;28;20493;-43
2022/12/29 07:22:55;;;;;;;3.50;3.30;;;;;;;8.58;100.00;99473.38;5016822;28;20196;-43
2022/12/29 07:25:20;;;;;;;3.10;2.90;;;;;;;8.55;100.00;99467.31;5010298;28;20177;-40
2022/12/29 07:27:46;;;;;;;3.35;3.08;;;;;;;8.57;100.00;99473.44;5020952;28;20197;-45
2022/12/29 07:30:12;;;;;;;3.17;2.90;;;;;;;8.52;100.00;99463.00;5007212;28;20632;-41
2022/12/29 07:32:37;;;;;;;2.55;2.30;;;;;;;8.55;100.00;99468.22;5007382;28;20220;-41
2022/12/29 07:35:03;;;;;;;2.28;2.10;;;;;;;8.57;100.00;99476.13;5009247;28;20175;-42
2022/12/29 07:37:29;;;;;;;2.08;1.90;;;;;;;8.62;100.00;99476.75;5009433;28;20680;-42
2022/12/29 07:39:54;;;;;;;3.25;1.95;;;;;;;8.61;100.00;99462.53;5021356;28;20213;-41
2022/12/29 07:42:19;;;;;;;5.03;2.30;;;;;;;8.60;100.00;99476.84;5011550;28;20300;-41
2022/12/29 07:44:50;;;;;;;2.05;1.75;;;;;;;8.60;100.00;99482.19;5013237;28;20232;-40
2022/12/29 07:47:19;;;;;;;2.63;1.75;;;;;;;8.59;100.00;99483.13;5008630;28;20196;-42
2022/12/29 07:49:45;;;;;;;1.83;1.60;;;;;;;8.63;100.00;99500.69;5019803;28;20176;-47
2022/12/29 07:52:10;;;;;;;1.75;1.65;;;;;;;8.65;100.00;99503.28;5003908;28;20294;-41
2022/12/29 07:54:36;;;;;;;2.63;1.88;;;;;;;8.64;100.00;99499.75;5011471;28;20510;-48
2022/12/29 07:57:01;;;;;;;3.38;1.58;;;;;;;8.65;100.00;99498.81;5011393;28;20194;-48
2022/12/29 07:59:27;;;;;;;2.20;1.30;;;;;;;8.63;100.00;99497.16;5017839;28;20675;-46
2022/12/29 08:01:52;;;;;;;3.38;1.70;;;;;;;8.59;100.00;99501.81;5017421;28;20173;-47
2022/12/29 08:04:18;;;;;;;2.85;1.60;;;;;;;8.56;100.00;99504.63;5020917;28;20320;-47
2022/12/29 08:06:45;;;;;;;1.50;1.40;;;;;;;8.72;100.00;99506.50;5016756;28;20552;-46
2022/12/29 08:09:10;;;;;;;4.82;1.30;;;;;;;8.67;100.00;99509.41;5024428;28;20651;-47
2022/12/29 08:11:36;;;;;;;2.72;1.27;;;;;;;8.69;100.00;99504.88;5007261;28;20222;-45
2022/12/29 08:14:02;;;;;;;3.65;1.58;;;;;;;8.66;100.00;99502.38;5010049;28;20232;-45
2022/12/29 08:16:28;;;;;;;3.83;1.20;;;;;;;8.70;100.00;99495.03;4998780;28;20290;-47
2022/12/29 08:18:53;;;;;;;5.65;1.50;;;;;;;8.64;100.00;99505.09;5010846;28;20215;-45
2022/12/29 08:21:19;;;;;;;3.05;1.20;;;;;;;8.76;100.00;99513.41;5014784;28;20187;-46
2022/12/29 08:23:44;;;;;;;2.58;1.50;;;;;;;8.74;100.00;99518.84;5023078;28;20205;-46
2022/12/29 08:26:10;;;;;;;2.97;1.27;;;;;;;8.72;100.00;99507.38;5018380;28;20682;-47
2022/12/29 08:28:36;;;;;;;5.00;1.02;;;;;;;8.71;100.00;99511.00;5015153;28;20541;-45
2022/12/29 08:31:02;;;;;;;4.88;1.17;;;;;;;8.69;100.00;99509.34;5011625;28;20487;-46
2022/12/29 08:33:29;;;;;;;3.78;1.20;;;;;;;8.76;100.00;99508.09;5007629;28;20204;-45
2022/12/29 08:36:06;;;;;;;2.83;1.15;;;;;;;8.77;100.00;99513.34;5005019;28;20189;-47
2022/12/29 08:38:32;;;;;;;2.03;0.90;;;;;;;8.72;100.00;99509.19;5001620;28;20223;-45
2022/12/29 08:41:00;;;;;;;2.08;1.00;;;;;;;8.75;100.00;99515.25;5006107;28;20176;-46
2022/12/29 08:43:27;;;;;;;6.38;1.52;;;;;;;8.77;100.00;99505.34;4996112;28;20256;-47
2022/12/29 08:45:52;;;;;;;2.63;0.93;;;;;;;8.72;100.00;99507.38;5013052;28;20176;-46
2022/12/29 08:48:19;;;;;;;5.43;1.40;;;;;;;8.76;100.00;99494.72;5015618;28;20188;-49
2022/12/29 08:50:46;;;;;;;5.93;1.30;;;;;;;8.79;100.00;99491.88;5016078;28;20203;-47
2022/12/29 08:53:12;;;;;;;4.20;1.10;;;;;;;8.83;100.00;99485.44;5018347;28;20218;-46
2022/12/29 08:55:37;;;;;;;6.40;1.05;;;;;;;8.73;100.00;99469.06;5023734;28;20185;-46
2022/12/29 08:58:03;;;;;;;5.82;1.40;;;;;;;8.77;100.00;99491.13;5016937;28;20647;-45
2022/12/29 09:00:28;;;;;;;7.32;1.70;;;;;;;8.67;100.00;99501.41;5009057;28;20208;-46
2022/12/29 09:02:57;;;;;;;5.65;1.48;;;;;;;8.72;100.00;99491.34;5007356;28;20239;-46
2022/12/29 09:05:23;;;;;;;4.63;1.38;;;;;;;8.68;100.00;99486.25;5014550;28;20216;-47
2022/12/29 09:07:48;;;;;;;6.70;1.50;;;;;;;8.64;100.00;99485.56;5017855;28;20182;-45
2022/12/29 09:10:14;;;;;;;6.03;1.25;;;;;;;8.54;100.00;99509.19;5020499;28;20175;-46
2022/12/29 09:12:39;;;;;;;4.47;1.00;;;;;;;8.57;100.00;99511.72;5018364;28;20219;-46
2022/12/29 09:15:05;;;;;;;5.65;1.50;;;;;;;8.54;100.00;99511.84;5012315;28;20188;-41
2022/12/29 09:17:44;;;;;;;3.90;1.30;;;;;;;8.56;100.00;99515.31;5009451;28;20189;-42
2022/12/29 09:20:14;;;;;;;3.70;1.15;;;;;;;8.59;100.00;99516.94;5015717;28;20266;-45
2022/12/29 09:22:40;;;;;;;4.40;1.40;;;;;;;8.64;100.00;99523.78;5008419;28;20286;-43
2022/12/29 09:25:06;;;;;;;5.90;1.92;;;;;;;8.63;100.00;99519.38;5008027;28;20284;-44
2022/12/29 09:27:31;;;;;;;4.90;1.08;;;;;;;8.68;100.00;99519.19;5011229;28;20181;-45
2022/12/29 09:29:57;;;;;;;6.25;1.58;;;;;;;8.72;100.00;99531.41;5011258;28;20168;-44
2022/12/29 09:32:22;;;;;;;4.88;1.10;;;;;;;8.73;100.00;99532.28;5011564;28;20271;-45
2022/12/29 09:34:48;;;;;;;5.35;1.33;;;;;;;8.72;100.00;99520.72;5011779;28;20169;-45
2022/12/29 09:37:13;;;;;;;3.72;1.02;;;;;;;8.77;100.00;99528.53;5010340;28;20541;-43
2022/12/29 09:39:40;;;;;;;5.65;1.15;;;;;;;8.82;100.00;99540.66;5012159;28;20618;-42
2022/12/29 09:42:30;;;;;;;4.40;1.30;;;;;;;8.84;100.00;99532.59;4994032;28;20738;-42
2022/12/29 09:45:28;;;;;;;6.72;1.45;;;;;;;8.83;100.00;99530.84;4993527;28;20533;-44
2022/12/29 09:47:54;;;;;;;6.07;1.25;;;;;;;8.89;100.00;99533.19;4991933;28;20590;-43
2022/12/29 09:50:30;;;;;;;4.70;1.65;;;;;;;8.93;100.00;99532.09;4992191;28;20161;-44
2022/12/29 09:53:05;;;;;;;5.47;1.52;;;;;;;9.00;100.00;99527.31;4991647;28;20205;-46
2022/12/29 09:55:44;;;;;;;5.13;1.40;;;;;;;9.11;100.00;99527.59;4991354;28;20195;-44
2022/12/29 09:58:19;;;;;;;8.60;1.50;;;;;;;9.07;100.00;99526.03;4991326;28;20201;-44
2022/12/29 10:00:58;;;;;;;5.97;1.60;;;;;;;9.13;100.00;99524.84;4991205;28;20180;-41
2022/12/29 10:03:32;;;;;;;7.75;1.55;;;;;;;9.10;100.00;99519.69;4991635;28;20252;-48
2022/12/29 10:06:03;;;;;;;6.53;1.85;;;;;;;9.17;100.00;99542.44;4991393;28;20169;-44
2022/12/29 10:08:39;;;;;;;6.10;1.58;;;;;;;9.32;100.00;99536.28;5005548;28;20255;-43
2022/12/29 10:11:38;;;;;;;3.78;1.38;;;;;;;9.38;100.00;99525.25;5009927;28;20164;-46
2022/12/29 10:14:21;;;;;;;6.93;1.58;;;;;;;9.40;100.00;99517.13;5011219;28;20208;-45
2022/12/29 10:16:58;;;;;;;6.82;1.60;;;;;;;9.37;100.00;99511.97;5011277;28;20244;-43
2022/12/29 10:19:47;;;;;;;7.43;1.70;;;;;;;9.31;100.00;99504.28;5010533;28;20605;-47
2022/12/29 10:22:30;;;;;;;6.57;1.42;;;;;;;9.25;99.99;99511.69;5000605;28;20213;-44
2022/12/29 10:24:56;;;;;;;8.18;1.80;;;;;;;9.29;99.30;99496.34;5000007;28;20193;-45
2022/12/29 10:27:23;;;;;;;9.15;1.95;;;;;;;9.24;98.81;99493.91;5009033;28;20537;-43
2022/12/29 10:30:01;;;;;;;8.80;1.63;;;;;;;9.22;98.04;99498.47;5011623;28;20165;-49
2022/12/29 10:32:45;;;;;;;5.05;1.67;;;;;;;9.24;97.26;99490.38;5009636;28;20208;-47
2022/12/29 10:35:40;;;;;;;5.68;1.67;;;;;;;9.22;97.04;99487.78;4995325;28;20572;-43
2022/12/29 10:38:41;;;;;;;7.72;1.63;;;;;;;9.15;96.77;99483.72;4986119;28;20215;-45
2022/12/29 10:41:17;;;;;;;5.15;1.38;;;;;;;9.15;96.74;99486.41;4995281;28;20162;-46
2022/12/29 10:43:48;;;;;;;8.25;1.55;;;;;;;9.17;96.53;99502.38;4994831;28;20205;-47
2022/12/29 10:46:29;;;;;;;7.25;1.90;;;;;;;9.20;96.34;99495.03;4994473;28;20180;-47
2022/12/29 10:48:55;;;;;;;6.25;1.70;;;;;;;9.18;96.51;99491.59;4996478;28;20719;-45
2022/12/29 10:51:33;;;;;;;6.95;1.70;;;;;;;9.16;96.39;99480.13;4994407;28;20272;-44
2022/12/29 10:54:10;;;;;;;4.75;1.35;;;;;;;9.22;96.38;99503.81;4994671;28;20216;-44
2022/12/29 10:56:40;;;;;;;9.15;1.52;;;;;;;9.25;96.31;99494.81;4994675;28;20578;-45
2022/12/29 10:59:31;;;;;;;6.25;1.73;;;;;;;9.20;96.51;99487.00;5012085;28;20204;-46
2022/12/29 11:02:08;;;;;;;6.43;1.75;;;;;;;9.19;96.99;99481.78;5013290;28;20184;-46
2022/12/29 11:04:40;;;;;;;7.93;1.58;;;;;;;9.13;97.27;99492.78;5012164;28;20179;-48
2022/12/29 11:07:06;;;;;;;4.90;1.35;;;;;;;9.12;98.18;99483.03;5005359;28;20185;-44
2022/12/29 11:09:35;;;;;;;9.43;1.98;;;;;;;9.21;98.66;99482.56;5006921;28;20583;-45
2022/12/29 11:12:19;;;;;;;3.30;1.38;;;;;;;9.21;98.76;99490.56;5004400;28;20593;-45
2022/12/29 11:14:44;;;;;;;7.75;1.55;;;;;;;9.26;98.86;99492.03;5009718;28;20459;-43
2022/12/29 11:17:15;;;;;;;7.40;1.73;;;;;;;9.25;98.53;99486.78;5013219;28;20180;-41
2022/12/29 11:19:41;;;;;;;8.07;1.80;;;;;;;9.25;98.49;99481.44;5012206;28;20719;-45
2022/12/29 11:22:13;;;;;;;6.15;1.52;;;;;;;9.23;98.31;99494.03;5005599;28;20280;-42
2022/12/29 11:24:45;;;;;;;5.88;1.42;;;;;;;9.20;98.26;99499.50;5005828;28;20188;-43
2022/12/29 11:27:16;;;;;;;7.75;1.48;;;;;;;9.19;98.57;99490.66;5011401;28;20276;-41
2022/12/29 11:29:43;;;;;;;7.40;2.05;;;;;;;9.13;98.89;99490.97;5017993;28;20188;-43
2022/12/29 11:32:29;;;;;;;9.90;1.63;;;;;;;9.04;99.49;99495.00;5030272;28;20644;-46
2022/12/29 11:34:57;;;;;;;6.47;1.55;;;;;;;9.00;99.98;99503.25;5016633;28;20640;-44
2022/12/29 11:37:40;;;;;;;8.10;1.95;;;;;;;8.93;100.00;99502.72;5012626;28;20512;-42
2022/12/29 11:40:17;;;;;;;7.15;1.73;;;;;;;8.99;100.00;99499.72;5012886;28;20216;-46
2022/12/29 11:42:48;;;;;;;4.10;1.15;;;;;;;8.95;100.00;99508.00;5011716;28;20667;-44
2022/12/29 11:45:17;;;;;;;10.38;2.20;;;;;;;8.94;100.00;99511.59;5012307;28;20251;-47
2022/12/29 11:47:47;;;;;;;7.13;1.42;;;;;;;8.78;100.00;99499.03;5012154;28;20283;-44
2022/12/29 11:50:26;;;;;;;6.10;1.55;;;;;;;8.71;100.00;99510.13;5011484;28;20207;-45
2022/12/29 11:52:58;;;;;;;10.40;1.75;;;;;;;8.66;100.00;99516.56;5012483;28;20241;-43
2022/12/29 11:55:26;;;;;;;6.53;2.00;;;;;;;8.58;100.00;99518.75;5012705;28;20642;-42
2022/12/29 11:57:55;;;;;;;9.32;1.55;;;;;;;8.47;100.00;99520.25;5012414;28;20184;-44
2022/12/29 12:00:24;;;;;;;9.75;1.70;;;;;;;8.44;100.00;99523.97;5012442;28;20200;-47
2022/12/29 12:03:16;;;;;;;8.65;1.70;;;;;;;8.48;100.00;99512.16;5001714;28;20869;-45
2022/12/29 12:05:56;;;;;;;7.95;1.70;;;;;;;8.48;100.00;99516.63;5001590;28;20176;-41
2022/12/29 12:08:40;;;;;;;8.52;1.92;;;;;;;8.55;100.00;99513.59;5012341;28;20168;-43
2022/12/29 12:11:13;;;;;;;7.60;1.63;;;;;;;8.53;100.00;99507.47;5011834;28;20168;-43
2022/12/29 12:13:55;;;;;;;6.28;1.38;;;;;;;8.62;100.00;99498.97;5011264;28;20207;-46
2022/12/29 12:16:28;;;;;;;11.93;2.08;;;;;;;8.73;100.00;99500.25;5036320;28;20683;-41
2022/12/29 12:19:14;;;;;;;10.20;1.83;;;;;;;8.78;100.00;99511.53;5032861;28;20583;-40
2022/12/29 12:21:43;;;;;;;7.13;1.50;;;;;;;8.78;100.00;99504.38;5017958;28;20178;-46